createdAt,value
2023-12-03T00:00:08.554Z,71.55
2023-12-03T00:02:37.027Z,71.60
2023-12-03T00:05:04.476Z,71.54
2023-12-03T00:07:31.967Z,71.61
2023-12-03T00:10:00.289Z,71.52
2023-12-03T00:12:27.013Z,71.56
2023-12-03T00:14:53.454Z,71.56
2023-12-03T00:17:19.890Z,71.62
2023-12-03T00:19:46.352Z,71.63
2023-12-03T00:22:12.897Z,71.61
2023-12-03T00:24:39.622Z,71.57
2023-12-03T00:27:06.340Z,71.59
2023-12-03T00:29:32.833Z,71.57
2023-12-03T00:31:59.254Z,71.65
2023-12-03T00:34:25.648Z,71.66
2023-12-03T00:36:52.555Z,71.61
2023-12-03T00:39:18.899Z,71.54
2023-12-03T00:41:45.377Z,71.67
2023-12-03T00:44:11.812Z,71.57
2023-12-03T00:46:38.193Z,71.58
2023-12-03T00:49:05.177Z,71.57
2023-12-03T00:51:31.737Z,71.62
2023-12-03T00:53:58.165Z,71.55
2023-12-03T00:56:24.672Z,71.50
2023-12-03T00:58:51.161Z,71.41
2023-12-03T01:01:20.118Z,71.44
2023-12-03T01:03:46.733Z,71.39
2023-12-03T01:06:13.281Z,71.45
2023-12-03T01:08:39.709Z,71.44
2023-12-03T01:11:06.840Z,71.44
2023-12-03T01:13:33.162Z,71.49
2023-12-03T01:15:59.612Z,71.56
2023-12-03T01:18:26.243Z,71.46
2023-12-03T01:20:52.661Z,71.46
2023-12-03T01:23:19.095Z,71.50
2023-12-03T01:25:45.494Z,71.57
2023-12-03T01:28:11.921Z,71.64
2023-12-03T01:30:38.408Z,71.67
2023-12-03T01:33:04.958Z,71.63
2023-12-03T01:35:31.562Z,71.50
2023-12-03T01:37:58.540Z,71.54
2023-12-03T01:40:25.029Z,71.40
2023-12-03T01:42:51.846Z,71.55
2023-12-03T01:45:18.192Z,71.54
2023-12-03T01:47:44.812Z,71.59
2023-12-03T01:50:13.139Z,71.61
2023-12-03T01:52:39.930Z,71.51
2023-12-03T01:55:08.319Z,71.51
2023-12-03T01:57:35.404Z,71.42
2023-12-03T02:00:03.779Z,71.40
2023-12-03T02:02:39.775Z,71.50
2023-12-03T02:05:06.724Z,71.49
2023-12-03T02:07:33.217Z,71.50
2023-12-03T02:10:00.244Z,71.43
2023-12-03T02:12:27.768Z,71.43
2023-12-03T02:14:54.233Z,71.32
2023-12-03T02:17:20.638Z,71.43
2023-12-03T02:19:47.015Z,71.45
2023-12-03T02:22:13.420Z,71.43
2023-12-03T02:24:39.781Z,71.43
2023-12-03T02:27:06.136Z,71.29
2023-12-03T02:29:32.705Z,71.43
2023-12-03T02:31:59.169Z,71.27
2023-12-03T02:34:25.654Z,71.31
2023-12-03T02:36:52.037Z,71.36
2023-12-03T02:39:18.455Z,71.47
2023-12-03T02:41:44.829Z,71.34
2023-12-03T02:44:11.170Z,71.29
2023-12-03T02:46:37.532Z,71.28
2023-12-03T02:49:04.052Z,71.23
2023-12-03T02:51:30.698Z,71.12
2023-12-03T02:53:57.171Z,71.21
2023-12-03T02:56:23.756Z,71.19
2023-12-03T02:58:50.084Z,71.20
2023-12-03T03:01:16.684Z,71.23
2023-12-03T03:03:43.173Z,71.21
2023-12-03T03:06:09.773Z,71.18
2023-12-03T03:08:36.276Z,71.20
2023-12-03T03:11:03.013Z,71.24
2023-12-03T03:13:29.511Z,71.32
2023-12-03T03:15:55.893Z,71.35
2023-12-03T03:18:22.447Z,71.44
2023-12-03T03:20:48.915Z,71.38
2023-12-03T03:23:15.297Z,71.32
2023-12-03T03:25:41.688Z,71.33
2023-12-03T03:28:08.134Z,71.41
2023-12-03T03:30:34.619Z,71.45
2023-12-03T03:33:01.090Z,71.38
2023-12-03T03:35:27.468Z,71.38
2023-12-03T03:37:53.873Z,71.40
2023-12-03T03:40:20.251Z,71.47
2023-12-03T03:42:46.675Z,71.35
2023-12-03T03:45:13.388Z,71.42
2023-12-03T03:47:39.798Z,71.45
2023-12-03T03:50:06.742Z,71.33
2023-12-03T03:52:33.144Z,71.37
2023-12-03T03:54:59.556Z,71.31
2023-12-03T03:57:26.051Z,71.48
2023-12-03T03:59:52.373Z,71.35
2023-12-03T04:02:18.778Z,71.37
2023-12-03T04:04:45.174Z,71.37
2023-12-03T04:07:12.235Z,71.32
2023-12-03T04:09:38.779Z,71.32
2023-12-03T04:12:05.375Z,71.39
2023-12-03T04:14:31.693Z,71.35
2023-12-03T04:16:59.274Z,71.35
2023-12-03T04:19:26.188Z,71.26
2023-12-03T04:21:52.776Z,71.35
2023-12-03T04:24:19.248Z,71.36
2023-12-03T04:26:45.724Z,71.38
2023-12-03T04:29:15.362Z,71.28
2023-12-03T04:31:42.510Z,71.31
2023-12-03T04:34:08.937Z,71.28
2023-12-03T04:36:36.139Z,71.09
2023-12-03T04:39:05.285Z,71.21
2023-12-03T04:41:35.768Z,71.36
2023-12-03T04:44:02.324Z,71.45
2023-12-03T04:46:28.682Z,71.33
2023-12-03T04:48:55.848Z,71.48
2023-12-03T04:51:23.369Z,71.46
2023-12-03T04:53:49.751Z,71.30
2023-12-03T04:56:16.189Z,71.43
2023-12-03T04:58:42.681Z,71.49
2023-12-03T05:01:09.674Z,71.48
2023-12-03T05:03:36.183Z,71.54
2023-12-03T05:06:02.880Z,71.46
2023-12-03T05:08:29.201Z,71.47
2023-12-03T05:10:55.576Z,71.48
2023-12-03T05:13:21.941Z,71.49
2023-12-03T05:15:48.291Z,71.67
2023-12-03T05:18:14.901Z,71.66
2023-12-03T05:20:41.943Z,71.68
2023-12-03T05:23:08.337Z,71.49
2023-12-03T05:25:34.749Z,71.63
2023-12-03T05:28:01.206Z,71.51
2023-12-03T05:30:28.227Z,71.48
2023-12-03T05:32:54.690Z,71.61
2023-12-03T05:35:21.148Z,71.68
2023-12-03T05:37:47.650Z,71.69
2023-12-03T05:40:14.158Z,71.70
2023-12-03T05:42:40.684Z,71.68
2023-12-03T05:45:08.312Z,71.74
2023-12-03T05:47:36.056Z,71.68
2023-12-03T05:50:03.710Z,71.76
2023-12-03T05:52:30.277Z,71.68
2023-12-03T05:54:56.982Z,71.79
2023-12-03T05:57:23.534Z,71.62
2023-12-03T05:59:51.666Z,71.71
2023-12-03T06:02:18.303Z,71.64
2023-12-03T06:04:44.820Z,71.75
2023-12-03T06:07:11.534Z,71.74
2023-12-03T06:09:38.756Z,71.75
2023-12-03T06:12:05.769Z,71.87
2023-12-03T06:14:32.255Z,71.70
2023-12-03T06:16:58.732Z,71.81
2023-12-03T06:19:25.609Z,71.92
2023-12-03T06:21:52.642Z,71.84
2023-12-03T06:24:19.698Z,71.80
2023-12-03T06:26:46.085Z,71.81
2023-12-03T06:29:15.491Z,71.85
2023-12-03T06:31:42.353Z,71.92
2023-12-03T06:34:08.940Z,71.76
2023-12-03T06:36:35.510Z,71.83
2023-12-03T06:39:02.127Z,71.84
2023-12-03T06:41:28.568Z,71.92
2023-12-03T06:43:55.049Z,71.93
2023-12-03T06:46:21.430Z,71.89
2023-12-03T06:48:47.836Z,71.93
2023-12-03T06:51:14.437Z,72.03
2023-12-03T06:53:40.942Z,71.89
2023-12-03T06:56:13.375Z,71.97
2023-12-03T06:58:39.967Z,71.98
2023-12-03T07:01:06.818Z,72.06
2023-12-03T07:03:33.216Z,72.02
2023-12-03T07:06:00.709Z,72.09
2023-12-03T07:08:27.180Z,72.17
2023-12-03T07:10:53.606Z,72.06
2023-12-03T07:13:20.064Z,72.08
2023-12-03T07:15:46.487Z,72.03
2023-12-03T07:18:13.097Z,72.12
2023-12-03T07:20:39.611Z,72.13
2023-12-03T07:23:05.971Z,72.14
2023-12-03T07:25:32.394Z,72.13
2023-12-03T07:27:58.925Z,72.14
2023-12-03T07:30:25.815Z,72.18
2023-12-03T07:32:52.886Z,72.24
2023-12-03T07:35:19.331Z,72.26
2023-12-03T07:37:45.958Z,72.23
2023-12-03T07:40:12.460Z,72.18
2023-12-03T07:42:40.743Z,72.20
2023-12-03T07:45:08.564Z,72.24
2023-12-03T07:47:35.031Z,72.18
2023-12-03T07:50:01.602Z,72.15
2023-12-03T07:52:28.170Z,72.17
2023-12-03T07:54:54.636Z,72.23
2023-12-03T07:57:21.132Z,72.22
2023-12-03T07:59:47.576Z,72.12
2023-12-03T08:02:14.125Z,72.13
2023-12-03T08:04:40.669Z,72.14
2023-12-03T08:07:07.437Z,72.11
2023-12-03T08:09:34.043Z,72.34
2023-12-03T08:12:00.603Z,72.26
2023-12-03T08:14:27.021Z,72.27
2023-12-03T08:16:53.409Z,72.28
2023-12-03T08:19:19.959Z,72.28
2023-12-03T08:21:47.771Z,72.21
2023-12-03T08:24:15.040Z,72.27
2023-12-03T08:26:45.798Z,72.26
2023-12-03T08:29:15.793Z,72.22
2023-12-03T08:31:42.349Z,72.20
2023-12-03T08:34:10.047Z,72.25
2023-12-03T08:36:42.063Z,72.12
2023-12-03T08:39:11.384Z,72.24
2023-12-03T08:41:39.465Z,72.25
2023-12-03T08:44:06.029Z,72.16
2023-12-03T08:46:35.849Z,72.21
2023-12-03T08:49:03.134Z,72.12
2023-12-03T08:51:32.440Z,72.12
2023-12-03T08:53:58.989Z,72.09
2023-12-03T08:56:26.050Z,72.18
2023-12-03T08:58:52.451Z,72.14
2023-12-03T09:01:20.980Z,72.08
2023-12-03T09:03:47.523Z,72.05
2023-12-03T09:06:14.063Z,71.99
2023-12-03T09:08:43.387Z,72.05
2023-12-03T09:11:10.917Z,71.96
2023-12-03T09:13:37.558Z,71.89
2023-12-03T09:16:04.711Z,71.86
2023-12-03T09:18:31.125Z,71.95
2023-12-03T09:20:57.652Z,71.99
2023-12-03T09:23:24.107Z,71.95
2023-12-03T09:25:50.544Z,72.05
2023-12-03T09:28:17.130Z,71.96
2023-12-03T09:30:43.601Z,71.84
2023-12-03T09:33:10.124Z,71.96
2023-12-03T09:35:36.995Z,72.01
2023-12-03T09:38:03.394Z,71.90
2023-12-03T09:40:30.032Z,72.04
2023-12-03T09:42:58.852Z,71.91
2023-12-03T09:45:29.192Z,71.90
2023-12-03T09:48:03.326Z,71.81
2023-12-03T09:50:34.739Z,71.94
2023-12-03T09:53:03.903Z,71.96
2023-12-03T09:55:32.834Z,72.02
2023-12-03T09:58:02.376Z,71.98
2023-12-03T10:00:31.201Z,71.92
2023-12-03T10:02:58.116Z,71.82
2023-12-03T10:05:26.195Z,71.88
2023-12-03T10:07:56.963Z,71.85
2023-12-03T10:10:29.210Z,71.93
2023-12-03T10:12:57.128Z,71.84
2023-12-03T10:15:25.999Z,71.96
2023-12-03T10:17:52.777Z,71.86
2023-12-03T10:20:22.466Z,71.88
2023-12-03T10:22:50.148Z,71.88
2023-12-03T10:25:29.653Z,71.90
2023-12-03T10:27:57.602Z,72.03
2023-12-03T10:30:24.546Z,71.93
2023-12-03T10:32:52.512Z,72.04
2023-12-03T10:35:22.400Z,71.91
2023-12-03T10:37:49.846Z,71.80
2023-12-03T10:40:17.401Z,71.67
2023-12-03T10:42:45.139Z,71.66
2023-12-03T10:45:14.458Z,71.74
2023-12-03T10:47:43.693Z,71.66
2023-12-03T10:50:14.216Z,71.65
2023-12-03T10:52:41.983Z,71.62
2023-12-03T10:55:09.006Z,71.55
2023-12-03T10:57:46.861Z,71.53
2023-12-03T11:00:18.468Z,71.35
2023-12-03T11:02:49.562Z,71.32
2023-12-03T11:05:34.362Z,71.38
2023-12-03T11:08:02.157Z,71.43
2023-12-03T11:10:30.142Z,71.43
2023-12-03T11:12:58.490Z,71.50
2023-12-03T11:15:25.372Z,71.58
2023-12-03T11:17:53.278Z,71.57
2023-12-03T11:20:31.306Z,71.55
2023-12-03T11:23:17.282Z,71.54
2023-12-03T11:25:50.800Z,71.40
2023-12-03T11:28:17.569Z,71.31
2023-12-03T11:30:44.297Z,71.30
2023-12-03T11:33:15.318Z,71.26
2023-12-03T11:35:47.938Z,71.17
2023-12-03T11:38:21.225Z,71.19
2023-12-03T11:40:48.833Z,71.24
2023-12-03T11:43:25.946Z,71.27
2023-12-03T11:45:53.621Z,71.24
2023-12-03T11:48:21.938Z,71.15
2023-12-03T11:50:49.701Z,71.17
2023-12-03T11:53:17.940Z,71.18
2023-12-03T11:55:50.239Z,71.07
2023-12-03T11:58:23.268Z,71.09
2023-12-03T12:00:51.677Z,71.12
2023-12-03T12:03:18.651Z,71.25
2023-12-03T12:05:46.730Z,71.32
2023-12-03T12:08:21.969Z,71.24
2023-12-03T12:10:53.362Z,71.19
